Mckinley Sea — WDE5024 — position and weather

sailwx.info

Track history (hours):
 
Tides and Currents Weather Stations Pressure Air Temp Water Temp Dewpoint Dewpoint Depression Visibility Wind Speed Wind Dir Waves Ship Positions

Mckinley Sea

Owner: Kirby Offshore Marine, LLC, Staten Island, NY. More information available from US FCC via Universal Licensing System and Coast Guard Vessel Documentation Center.

Last reported at 2017-May-30 02:06 UTC. Time now 2017-May-30 03:22 UTC.
Position N 40°49' W 073°47'.

Length 41 m; draft 6 m.

Type: . MMSI: 367360980.

Date/timePositionNaut miles runAvg speedWind from/ knotsBaromVisibWave heightAir tempDewpointWater temp
2017-May-30 02:06N 40°49' W 073°47'0 0.0
2017-May-30 02:00N 40°49' W 073°47'0 0.0
2017-May-30 01:27N 40°49' W 073°47'0 0.0
2017-May-29 22:06N 40°49' W 073°47'0 0.0
2017-May-29 17:45N 40°49' W 073°47'0 0.1
2017-May-29 15:18N 40°49' W 073°47'0 0.1
2017-May-29 14:57N 40°49' W 073°47'0 0.0
2017-May-29 14:24N 40°49' W 073°47'0 0.0
2017-May-29 12:54N 40°49' W 073°47'0 0.0
2017-May-29 12:30N 40°49' W 073°47'0 0.1
2017-May-29 12:00N 40°49' W 073°47'0 0.0
2017-May-29 11:30N 40°49' W 073°47'0 0.0
2017-May-29 11:00N 40°49' W 073°47'0 0.0
2017-May-29 09:18N 40°49' W 073°47'0 0.0
2017-May-29 02:24N 40°49' W 073°47'0 0.0
2017-May-28 23:21N 40°49' W 073°47'0 0.0
2017-May-28 22:51N 40°49' W 073°47'0 0.0
2017-May-28 22:21N 40°49' W 073°47'0 0.0
2017-May-28 21:57N 40°49' W 073°47'0 0.0
2017-May-28 19:24N 40°49' W 073°47'0 0.1
2017-May-28 18:54N 40°49' W 073°47'0 0.1
2017-May-28 18:18N 40°49' W 073°47'0 0.0
2017-May-28 17:42N 40°49' W 073°47'0 0.0
2017-May-28 13:54N 40°49' W 073°47'0 0.0
2017-May-28 13:27N 40°49' W 073°47'0 0.0
2017-May-28 12:12N 40°49' W 073°47'0 0.0
2017-May-28 11:42N 40°49' W 073°47'0 0.0
2017-May-28 11:30N 40°49' W 073°47'0 0.0
2017-May-28 11:00N 40°49' W 073°47'0 0.0
2017-May-28 10:21N 40°49' W 073°47'0 0.0
2017-May-28 10:00N 40°49' W 073°47'0 0.0
2017-May-28 02:42N 40°49' W 073°47'0 0.0
2017-May-28 02:22N 40°49' W 073°47'0 0.3
2017-May-28 01:59N 40°49' W 073°47'57 7.9
2017-May-27 18:43N 41°07' W 072°35'2 7.7
2017-May-27 18:27N 41°08' W 072°32'4 8.1
2017-May-27 18:00N 41°09' W 072°27'4 8.3
2017-May-27 17:30N 41°11' W 072°22'101 7.0
2017-May-27 03:11N 42°07' W 070°31'12 8.6
2017-May-27 01:48N 42°17' W 070°41'3 8.5
2017-May-27 01:25N 42°19' W 070°44'4 8.6
2017-May-27 01:00N 42°22' W 070°47'4 8.0
2017-May-27 00:30N 42°23' W 070°52'4 7.5
2017-May-27 00:00N 42°21' W 070°56'3 6.7
2017-May-26 23:31N 42°21' W 071°01'3 5.9
2017-May-26 23:00N 42°23' W 071°03'0 0.7
2017-May-26 22:29N 42°23' W 071°03'0 0.1
2017-May-26 21:59N 42°23' W 071°03'0 0.0
2017-May-26 21:23N 42°23' W 071°03'0 0.0
2017-May-26 20:59N 42°23' W 071°03'0 0.0
2017-May-26 20:29N 42°23' W 071°03'0 0.0
2017-May-26 19:59N 42°23' W 071°03'0 0.0
2017-May-26 19:29N 42°23' W 071°03'0 0.0
2017-May-26 18:59N 42°23' W 071°03'0 0.0
2017-May-26 18:29N 42°23' W 071°03'0 0.0
2017-May-26 17:59N 42°23' W 071°03'0 0.0
2017-May-26 17:29N 42°23' W 071°03'0 0.0
2017-May-26 16:59N 42°23' W 071°03'0 0.0
2017-May-26 16:29N 42°23' W 071°03'0 0.0
2017-May-26 15:59N 42°23' W 071°03'0 0.0
2017-May-26 15:29N 42°23' W 071°03'0 0.0
2017-May-26 14:59N 42°23' W 071°03'0 0.0
2017-May-26 13:59N 42°23' W 071°03'0 0.0
2017-May-26 13:29N 42°23' W 071°03'0 0.0
2017-May-26 12:59N 42°23' W 071°03'0 0.0
2017-May-26 12:29N 42°23' W 071°03'0 0.0
2017-May-26 11:59N 42°23' W 071°03'0 0.0
2017-May-26 11:30N 42°23' W 071°03'0 0.0
2017-May-26 11:00N 42°23' W 071°03'0 0.0
2017-May-26 10:30N 42°23' W 071°03'0 0.0
2017-May-26 10:00N 42°23' W 071°03'0 0.0
2017-May-26 09:30N 42°23' W 071°03'0 0.0
2017-May-26 09:00N 42°23' W 071°03'0 0.0
2017-May-26 08:30N 42°23' W 071°03'0 0.0
2017-May-26 08:00N 42°23' W 071°03'0 0.0
2017-May-26 07:30N 42°23' W 071°03'0 0.0
2017-May-26 07:00N 42°23' W 071°03'0 0.0
2017-May-26 06:30N 42°23' W 071°03'0 0.1
2017-May-26 06:00N 42°23' W 071°03'0 0.8
2017-May-26 05:30N 42°23' W 071°03'1 2.8
2017-May-26 05:00N 42°22' W 071°03'1 1.8
2017-May-26 04:30N 42°21' W 071°02'1 2.5
2017-May-26 04:00N 42°20' W 071°00'2 4.4
2017-May-26 03:30N 42°20' W 070°57'3 6.4
2017-May-26 03:00N 42°22' W 070°54'4 7.3
2017-May-26 02:30N 42°23' W 070°49'3 6.6
2017-May-26 02:00N 42°21' W 070°45'4 7.4
2017-May-26 01:30N 42°18' W 070°42'4 7.6
2017-May-26 01:00N 42°16' W 070°38'4 7.3
2017-May-26 00:30N 42°13' W 070°35'4 7.0
2017-May-26 00:00N 42°10' W 070°32'99 5.6
2017-May-25 06:12N 41°11' W 072°18'410.2
2017-May-25 05:50N 41°10' W 072°23'4 9.6
2017-May-25 05:24N 41°09' W 072°29'4 9.0
2017-May-25 05:00N 41°08' W 072°33'5 8.5
2017-May-25 04:24N 41°07' W 072°40'54 6.7
2017-May-24 20:20N 40°48' W 073°47'2 7.5
2017-May-24 20:00N 40°48' W 073°50'3 6.4
2017-May-24 19:30N 40°48' W 073°55'3 5.1
2017-May-24 19:00N 40°46' W 073°57'2 4.6
2017-May-24 18:30N 40°44' W 073°58'2 3.8
2017-May-24 18:00N 40°42' W 073°60'2 4.5
2017-May-24 17:30N 40°41' W 074°02'1 1.6
2017-May-24 16:59N 40°40' W 074°02'0 0.0
2017-May-24 16:29N 40°40' W 074°02'0 0.0
2017-May-24 15:59N 40°40' W 074°02'0 0.1
2017-May-24 15:29N 40°40' W 074°02'0 0.1
2017-May-24 14:59N 40°40' W 074°02'0 0.1
2017-May-24 14:29N 40°40' W 074°02'0 0.2
2017-May-24 13:29N 40°40' W 074°02'0 0.0
2017-May-24 12:59N 40°40' W 074°02'0 0.1
2017-May-24 12:29N 40°40' W 074°02'0 0.0
2017-May-24 11:59N 40°40' W 074°02'0 0.0
2017-May-24 11:29N 40°40' W 074°02'0 0.0
2017-May-24 10:59N 40°40' W 074°02'0 0.0
2017-May-24 10:29N 40°40' W 074°02'0 0.1
2017-May-24 09:59N 40°40' W 074°02'0 0.3
2017-May-24 09:29N 40°40' W 074°02'0 0.2
2017-May-24 08:59N 40°40' W 074°02'0 0.1
2017-May-24 08:30N 40°40' W 074°02'2 5.0
2017-May-24 08:01N 40°39' W 074°05'2 4.9
2017-May-24 07:30N 40°39' W 074°09'3 5.4
2017-May-24 07:00N 40°38' W 074°12'3 4.5
2017-May-24 06:25N 40°35' W 074°12'0 0.1
2017-May-24 05:31N 40°35' W 074°12'0 0.1
2017-May-24 05:21N 40°35' W 074°12'0 0.0
2017-May-24 02:15N 40°35' W 074°12'0 0.0
2017-May-24 00:27N 40°35' W 074°12'0 0.0
2017-May-23 11:36N 40°35' W 074°12'0 0.2
2017-May-23 11:28N 40°35' W 074°12'3 5.3
2017-May-23 10:58N 40°38' W 074°12'3 6.2
2017-May-23 10:30N 40°39' W 074°08'4 7.5
2017-May-23 10:00N 40°39' W 074°03'1 1.4
2017-May-23 09:30N 40°39' W 074°03'0 0.1
2017-May-23 09:00N 40°39' W 074°03'0 0.2
2017-May-23 08:30N 40°39' W 074°03'0 0.1
2017-May-23 08:00N 40°39' W 074°03'0 0.1
2017-May-23 07:30N 40°39' W 074°03'0 0.0
2017-May-23 07:00N 40°39' W 074°03'0 0.0
2017-May-23 06:30N 40°39' W 074°03'0 0.0
2017-May-23 06:00N 40°39' W 074°03'0 0.0
2017-May-23 05:30N 40°39' W 074°03'0 0.0
2017-May-23 05:00N 40°39' W 074°03'0 0.0
2017-May-23 04:30N 40°39' W 074°03'0 0.0
2017-May-23 04:00N 40°39' W 074°03'0 0.1
2017-May-23 03:30N 40°39' W 074°03'0 0.1
2017-May-23 03:00N 40°39' W 074°03'0 0.1
2017-May-23 02:30N 40°39' W 074°03'0 0.0
2017-May-23 02:00N 40°39' W 074°03'0 0.0
2017-May-23 01:30N 40°39' W 074°03'0 0.2
2017-May-23 01:00N 40°39' W 074°03'0 0.3
2017-May-23 00:30N 40°40' W 074°03'0 0.0
2017-May-23 00:00N 40°40' W 074°03'0 0.0
2017-May-22 23:30N 40°40' W 074°03'0 0.0
2017-May-22 23:00N 40°40' W 074°03'0 0.0
2017-May-22 22:30N 40°40' W 074°03'0 0.0
2017-May-22 22:00N 40°40' W 074°03'0 0.0
2017-May-22 21:30N 40°40' W 074°03'0 0.0
2017-May-22 21:00N 40°40' W 074°03'0 0.1
2017-May-22 20:30N 40°40' W 074°03'0 0.1
2017-May-22 20:00N 40°40' W 074°03'0 0.2
2017-May-22 19:30N 40°39' W 074°03'0 0.1
2017-May-22 19:00N 40°39' W 074°03'0 0.0
2017-May-22 18:30N 40°39' W 074°03'0 0.1
2017-May-22 18:00N 40°39' W 074°03'0 0.0
2017-May-22 17:30N 40°39' W 074°03'0 0.0
2017-May-22 17:00N 40°39' W 074°03'1 2.4
2017-May-22 16:30N 40°39' W 074°04'4 8.5
2017-May-22 16:00N 40°39' W 074°10'0 0.1
2017-May-22 15:21N 40°39' W 074°10'0 0.0
2017-May-22 14:57N 40°39' W 074°10'0 0.0
2017-May-22 13:56N 40°39' W 074°10'0 0.0
2017-May-22 13:24N 40°39' W 074°10'0 0.0
2017-May-22 13:00N 40°39' W 074°10'0 0.0
2017-May-22 12:30N 40°39' W 074°10'0 0.0
2017-May-22 12:00N 40°39' W 074°10'0 0.4
2017-May-22 11:30N 40°38' W 074°10'4 8.8
2017-May-22 11:00N 40°39' W 074°04'1 2.1
2017-May-22 10:29N 40°40' W 074°03'0 0.1
2017-May-22 09:59N 40°40' W 074°03'0 0.0
2017-May-22 09:26N 40°40' W 074°03'0 0.0
2017-May-22 08:59N 40°40' W 074°03'2 4.3
2017-May-22 08:30N 40°39' W 074°05'4 7.2
2017-May-22 08:00N 40°39' W 074°10'0 0.0
2017-May-22 07:30N 40°39' W 074°10'0 0.1
2017-May-22 06:59N 40°39' W 074°10'0 0.0
2017-May-22 06:29N 40°39' W 074°10'0 0.0
2017-May-22 05:59N 40°39' W 074°10'0 0.0
2017-May-22 05:30N 40°39' W 074°10'0 0.0
2017-May-22 05:00N 40°39' W 074°10'3 5.9
2017-May-22 04:30N 40°39' W 074°06'2 3.0
2017-May-22 04:00N 40°39' W 074°04'2 3.8
2017-May-22 03:30N 40°39' W 074°07'0 0.0
2017-May-22 03:00N 40°39' W 074°07'0 0.0
2017-May-22 02:30N 40°39' W 074°07'0 0.0
2017-May-22 02:00N 40°39' W 074°07'0 0.0
2017-May-22 01:30N 40°39' W 074°07'0 0.0
2017-May-22 01:00N 40°39' W 074°07'0 0.0
2017-May-22 00:30N 40°39' W 074°07'0 0.0
2017-May-22 00:00N 40°39' W 074°07'0 0.0
2017-May-21 23:30N 40°39' W 074°07'0 0.0
2017-May-21 23:00N 40°39' W 074°07'0 0.0
2017-May-21 22:30N 40°39' W 074°07'0 0.1
2017-May-21 22:00N 40°39' W 074°07'3 5.6
2017-May-21 21:30N 40°39' W 074°03'1 1.7
2017-May-21 21:00N 40°39' W 074°04'2 4.3
2017-May-21 20:30N 40°39' W 074°07'0 0.0
2017-May-21 20:00N 40°39' W 074°07'0 0.0
2017-May-21 19:30N 40°39' W 074°07'0 0.0
2017-May-21 19:00N 40°39' W 074°07'0 0.0
2017-May-21 18:30N 40°39' W 074°07'0 0.0
2017-May-21 18:00N 40°39' W 074°07'2 3.6
2017-May-21 17:30N 40°39' W 074°04'1 2.4
2017-May-21 17:00N 40°39' W 074°03'2 4.4
2017-May-21 16:31N 40°37' W 074°03'4 7.6
2017-May-21 16:01N 40°34' W 074°02'4 7.4
2017-May-21 15:31N 40°31' W 073°59'4 8.2
2017-May-21 15:00N 40°29' W 073°54'4 8.5
2017-May-21 14:29N 40°30' W 073°48'24 8.5
2017-May-21 11:36N 40°34' W 073°16'1 8.6
2017-May-21 11:30N 40°34' W 073°15'154 7.8
2017-May-20 15:47N 42°07' W 070°32'16 8.2
2017-May-20 13:49N 42°19' W 070°45'3 8.6
2017-May-20 13:31N 42°21' W 070°48'4 8.2
2017-May-20 13:01N 42°23' W 070°53'4 8.5
2017-May-20 12:31N 42°20' W 070°57'4 8.2
2017-May-20 12:01N 42°22' W 071°03'2 3.5
2017-May-20 11:30N 42°23' W 071°03'0 0.0
2017-May-20 10:56N 42°23' W 071°03'0 0.0
2017-May-20 10:23N 42°23' W 071°03'0 0.2
2017-May-20 10:00N 42°23' W 071°03'0 0.0
2017-May-20 09:30N 42°23' W 071°03'0 0.0
2017-May-20 09:00N 42°23' W 071°03'0 0.0
2017-May-20 08:27N 42°23' W 071°03'0 0.0
2017-May-20 08:00N 42°23' W 071°03'0 0.0
2017-May-20 07:30N 42°23' W 071°03'0 0.0
2017-May-20 07:00N 42°23' W 071°03'0 0.0
2017-May-20 06:30N 42°23' W 071°03'0 0.0
2017-May-20 06:00N 42°23' W 071°03'0 0.0
2017-May-20 05:30N 42°23' W 071°03'0 0.0
2017-May-20 04:57N 42°23' W 071°03'0 0.0
2017-May-20 04:30N 42°23' W 071°03'0 0.0
2017-May-20 04:00N 42°23' W 071°03'0 0.0
2017-May-20 03:30N 42°23' W 071°03'0 0.0
2017-May-20 03:00N 42°23' W 071°03'0 0.0
2017-May-20 02:30N 42°23' W 071°03'  
Track history (hours):
 
Tides and Currents Weather Stations Pressure Air Temp Water Temp Dewpoint Dewpoint Depression Visibility Wind Speed Wind Dir Waves Ship Positions

Mckinley Sea

Owner: Kirby Offshore Marine, LLC, Staten Island, NY. More information available from US FCC via Universal Licensing System and Coast Guard Vessel Documentation Center.

Last reported at 2017-May-30 02:06 UTC. Time now 2017-May-30 03:22 UTC.
Position N 40°49' W 073°47'.

Length 41 m; draft 6 m.

Type: . MMSI: 367360980.

Date/timePositionNaut miles runAvg speedWind from/ knotsBaromVisibWave heightAir tempDewpointWater temp
2017-May-30 02:06N 40°49' W 073°47'0 0.0
2017-May-30 02:00N 40°49' W 073°47'0 0.0
2017-May-30 01:27N 40°49' W 073°47'0 0.0
2017-May-29 22:06N 40°49' W 073°47'0 0.0
2017-May-29 17:45N 40°49' W 073°47'0 0.1
2017-May-29 15:18N 40°49' W 073°47'0 0.1
2017-May-29 14:57N 40°49' W 073°47'0 0.0
2017-May-29 14:24N 40°49' W 073°47'0 0.0
2017-May-29 12:54N 40°49' W 073°47'0 0.0
2017-May-29 12:30N 40°49' W 073°47'0 0.1
2017-May-29 12:00N 40°49' W 073°47'0 0.0
2017-May-29 11:30N 40°49' W 073°47'0 0.0
2017-May-29 11:00N 40°49' W 073°47'0 0.0
2017-May-29 09:18N 40°49' W 073°47'0 0.0
2017-May-29 02:24N 40°49' W 073°47'0 0.0
2017-May-28 23:21N 40°49' W 073°47'0 0.0
2017-May-28 22:51N 40°49' W 073°47'0 0.0
2017-May-28 22:21N 40°49' W 073°47'0 0.0
2017-May-28 21:57N 40°49' W 073°47'0 0.0
2017-May-28 19:24N 40°49' W 073°47'0 0.1
2017-May-28 18:54N 40°49' W 073°47'0 0.1
2017-May-28 18:18N 40°49' W 073°47'0 0.0
2017-May-28 17:42N 40°49' W 073°47'0 0.0
2017-May-28 13:54N 40°49' W 073°47'0 0.0
2017-May-28 13:27N 40°49' W 073°47'0 0.0
2017-May-28 12:12N 40°49' W 073°47'0 0.0
2017-May-28 11:42N 40°49' W 073°47'0 0.0
2017-May-28 11:30N 40°49' W 073°47'0 0.0
2017-May-28 11:00N 40°49' W 073°47'0 0.0
2017-May-28 10:21N 40°49' W 073°47'0 0.0
2017-May-28 10:00N 40°49' W 073°47'0 0.0
2017-May-28 02:42N 40°49' W 073°47'0 0.0
2017-May-28 02:22N 40°49' W 073°47'0 0.3
2017-May-28 01:59N 40°49' W 073°47'57 7.9
2017-May-27 18:43N 41°07' W 072°35'2 7.7
2017-May-27 18:27N 41°08' W 072°32'4 8.1
2017-May-27 18:00N 41°09' W 072°27'4 8.3
2017-May-27 17:30N 41°11' W 072°22'101 7.0
2017-May-27 03:11N 42°07' W 070°31'12 8.6
2017-May-27 01:48N 42°17' W 070°41'3 8.5
2017-May-27 01:25N 42°19' W 070°44'4 8.6
2017-May-27 01:00N 42°22' W 070°47'4 8.0
2017-May-27 00:30N 42°23' W 070°52'4 7.5
2017-May-27 00:00N 42°21' W 070°56'3 6.7
2017-May-26 23:31N 42°21' W 071°01'3 5.9
2017-May-26 23:00N 42°23' W 071°03'0 0.7
2017-May-26 22:29N 42°23' W 071°03'0 0.1
2017-May-26 21:59N 42°23' W 071°03'0 0.0
2017-May-26 21:23N 42°23' W 071°03'0 0.0
2017-May-26 20:59N 42°23' W 071°03'0 0.0
2017-May-26 20:29N 42°23' W 071°03'0 0.0
2017-May-26 19:59N 42°23' W 071°03'0 0.0
2017-May-26 19:29N 42°23' W 071°03'0 0.0
2017-May-26 18:59N 42°23' W 071°03'0 0.0
2017-May-26 18:29N 42°23' W 071°03'0 0.0
2017-May-26 17:59N 42°23' W 071°03'0 0.0
2017-May-26 17:29N 42°23' W 071°03'0 0.0
2017-May-26 16:59N 42°23' W 071°03'0 0.0
2017-May-26 16:29N 42°23' W 071°03'0 0.0
2017-May-26 15:59N 42°23' W 071°03'0 0.0
2017-May-26 15:29N 42°23' W 071°03'0 0.0
2017-May-26 14:59N 42°23' W 071°03'0 0.0
2017-May-26 13:59N 42°23' W 071°03'0 0.0
2017-May-26 13:29N 42°23' W 071°03'0 0.0
2017-May-26 12:59N 42°23' W 071°03'0 0.0
2017-May-26 12:29N 42°23' W 071°03'0 0.0
2017-May-26 11:59N 42°23' W 071°03'0 0.0
2017-May-26 11:30N 42°23' W 071°03'0 0.0
2017-May-26 11:00N 42°23' W 071°03'0 0.0
2017-May-26 10:30N 42°23' W 071°03'0 0.0
2017-May-26 10:00N 42°23' W 071°03'0 0.0
2017-May-26 09:30N 42°23' W 071°03'0 0.0
2017-May-26 09:00N 42°23' W 071°03'0 0.0
2017-May-26 08:30N 42°23' W 071°03'0 0.0
2017-May-26 08:00N 42°23' W 071°03'0 0.0
2017-May-26 07:30N 42°23' W 071°03'0 0.0
2017-May-26 07:00N 42°23' W 071°03'0 0.0
2017-May-26 06:30N 42°23' W 071°03'0 0.1
2017-May-26 06:00N 42°23' W 071°03'0 0.8
2017-May-26 05:30N 42°23' W 071°03'1 2.8
2017-May-26 05:00N 42°22' W 071°03'1 1.8
2017-May-26 04:30N 42°21' W 071°02'1 2.5
2017-May-26 04:00N 42°20' W 071°00'2 4.4
2017-May-26 03:30N 42°20' W 070°57'3 6.4
2017-May-26 03:00N 42°22' W 070°54'4 7.3
2017-May-26 02:30N 42°23' W 070°49'3 6.6
2017-May-26 02:00N 42°21' W 070°45'4 7.4
2017-May-26 01:30N 42°18' W 070°42'4 7.6
2017-May-26 01:00N 42°16' W 070°38'4 7.3
2017-May-26 00:30N 42°13' W 070°35'4 7.0
2017-May-26 00:00N 42°10' W 070°32'99 5.6
2017-May-25 06:12N 41°11' W 072°18'410.2
2017-May-25 05:50N 41°10' W 072°23'4 9.6
2017-May-25 05:24N 41°09' W 072°29'4 9.0
2017-May-25 05:00N 41°08' W 072°33'5 8.5
2017-May-25 04:24N 41°07' W 072°40'54 6.7
2017-May-24 20:20N 40°48' W 073°47'2 7.5
2017-May-24 20:00N 40°48' W 073°50'3 6.4
2017-May-24 19:30N 40°48' W 073°55'3 5.1
2017-May-24 19:00N 40°46' W 073°57'2 4.6
2017-May-24 18:30N 40°44' W 073°58'2 3.8
2017-May-24 18:00N 40°42' W 073°60'2 4.5
2017-May-24 17:30N 40°41' W 074°02'1 1.6
2017-May-24 16:59N 40°40' W 074°02'0 0.0
2017-May-24 16:29N 40°40' W 074°02'0 0.0
2017-May-24 15:59N 40°40' W 074°02'0 0.1
2017-May-24 15:29N 40°40' W 074°02'0 0.1
2017-May-24 14:59N 40°40' W 074°02'0 0.1
2017-May-24 14:29N 40°40' W 074°02'0 0.2
2017-May-24 13:29N 40°40' W 074°02'0 0.0
2017-May-24 12:59N 40°40' W 074°02'0 0.1
2017-May-24 12:29N 40°40' W 074°02'0 0.0
2017-May-24 11:59N 40°40' W 074°02'0 0.0
2017-May-24 11:29N 40°40' W 074°02'0 0.0
2017-May-24 10:59N 40°40' W 074°02'0 0.0
2017-May-24 10:29N 40°40' W 074°02'0 0.1
2017-May-24 09:59N 40°40' W 074°02'0 0.3
2017-May-24 09:29N 40°40' W 074°02'0 0.2
2017-May-24 08:59N 40°40' W 074°02'0 0.1
2017-May-24 08:30N 40°40' W 074°02'2 5.0
2017-May-24 08:01N 40°39' W 074°05'2 4.9
2017-May-24 07:30N 40°39' W 074°09'3 5.4
2017-May-24 07:00N 40°38' W 074°12'3 4.5
2017-May-24 06:25N 40°35' W 074°12'0 0.1
2017-May-24 05:31N 40°35' W 074°12'0 0.1
2017-May-24 05:21N 40°35' W 074°12'0 0.0
2017-May-24 02:15N 40°35' W 074°12'0 0.0
2017-May-24 00:27N 40°35' W 074°12'0 0.0
2017-May-23 11:36N 40°35' W 074°12'0 0.2
2017-May-23 11:28N 40°35' W 074°12'3 5.3
2017-May-23 10:58N 40°38' W 074°12'3 6.2
2017-May-23 10:30N 40°39' W 074°08'4 7.5
2017-May-23 10:00N 40°39' W 074°03'1 1.4
2017-May-23 09:30N 40°39' W 074°03'0 0.1
2017-May-23 09:00N 40°39' W 074°03'0 0.2
2017-May-23 08:30N 40°39' W 074°03'0 0.1
2017-May-23 08:00N 40°39' W 074°03'0 0.1
2017-May-23 07:30N 40°39' W 074°03'0 0.0
2017-May-23 07:00N 40°39' W 074°03'0 0.0
2017-May-23 06:30N 40°39' W 074°03'0 0.0
2017-May-23 06:00N 40°39' W 074°03'0 0.0
2017-May-23 05:30N 40°39' W 074°03'0 0.0
2017-May-23 05:00N 40°39' W 074°03'0 0.0
2017-May-23 04:30N 40°39' W 074°03'0 0.0
2017-May-23 04:00N 40°39' W 074°03'0 0.1
2017-May-23 03:30N 40°39' W 074°03'0 0.1
2017-May-23 03:00N 40°39' W 074°03'0 0.1
2017-May-23 02:30N 40°39' W 074°03'0 0.0
2017-May-23 02:00N 40°39' W 074°03'0 0.0
2017-May-23 01:30N 40°39' W 074°03'0 0.2
2017-May-23 01:00N 40°39' W 074°03'0 0.3
2017-May-23 00:30N 40°40' W 074°03'0 0.0
2017-May-23 00:00N 40°40' W 074°03'0 0.0
2017-May-22 23:30N 40°40' W 074°03'0 0.0
2017-May-22 23:00N 40°40' W 074°03'0 0.0
2017-May-22 22:30N 40°40' W 074°03'0 0.0
2017-May-22 22:00N 40°40' W 074°03'0 0.0
2017-May-22 21:30N 40°40' W 074°03'0 0.0
2017-May-22 21:00N 40°40' W 074°03'0 0.1
2017-May-22 20:30N 40°40' W 074°03'0 0.1
2017-May-22 20:00N 40°40' W 074°03'0 0.2
2017-May-22 19:30N 40°39' W 074°03'0 0.1
2017-May-22 19:00N 40°39' W 074°03'0 0.0
2017-May-22 18:30N 40°39' W 074°03'0 0.1
2017-May-22 18:00N 40°39' W 074°03'0 0.0
2017-May-22 17:30N 40°39' W 074°03'0 0.0
2017-May-22 17:00N 40°39' W 074°03'1 2.4
2017-May-22 16:30N 40°39' W 074°04'4 8.5
2017-May-22 16:00N 40°39' W 074°10'0 0.1
2017-May-22 15:21N 40°39' W 074°10'0 0.0
2017-May-22 14:57N 40°39' W 074°10'0 0.0
2017-May-22 13:56N 40°39' W 074°10'0 0.0
2017-May-22 13:24N 40°39' W 074°10'0 0.0
2017-May-22 13:00N 40°39' W 074°10'0 0.0
2017-May-22 12:30N 40°39' W 074°10'0 0.0
2017-May-22 12:00N 40°39' W 074°10'0 0.4
2017-May-22 11:30N 40°38' W 074°10'4 8.8
2017-May-22 11:00N 40°39' W 074°04'1 2.1
2017-May-22 10:29N 40°40' W 074°03'0 0.1
2017-May-22 09:59N 40°40' W 074°03'0 0.0
2017-May-22 09:26N 40°40' W 074°03'0 0.0
2017-May-22 08:59N 40°40' W 074°03'2 4.3
2017-May-22 08:30N 40°39' W 074°05'4 7.2
2017-May-22 08:00N 40°39' W 074°10'0 0.0
2017-May-22 07:30N 40°39' W 074°10'0 0.1
2017-May-22 06:59N 40°39' W 074°10'0 0.0
2017-May-22 06:29N 40°39' W 074°10'0 0.0
2017-May-22 05:59N 40°39' W 074°10'0 0.0
2017-May-22 05:30N 40°39' W 074°10'0 0.0
2017-May-22 05:00N 40°39' W 074°10'3 5.9
2017-May-22 04:30N 40°39' W 074°06'2 3.0
2017-May-22 04:00N 40°39' W 074°04'2 3.8
2017-May-22 03:30N 40°39' W 074°07'0 0.0
2017-May-22 03:00N 40°39' W 074°07'0 0.0
2017-May-22 02:30N 40°39' W 074°07'0 0.0
2017-May-22 02:00N 40°39' W 074°07'0 0.0
2017-May-22 01:30N 40°39' W 074°07'0 0.0
2017-May-22 01:00N 40°39' W 074°07'0 0.0
2017-May-22 00:30N 40°39' W 074°07'0 0.0
2017-May-22 00:00N 40°39' W 074°07'0 0.0
2017-May-21 23:30N 40°39' W 074°07'0 0.0
2017-May-21 23:00N 40°39' W 074°07'0 0.0
2017-May-21 22:30N 40°39' W 074°07'0 0.1
2017-May-21 22:00N 40°39' W 074°07'3 5.6
2017-May-21 21:30N 40°39' W 074°03'1 1.7
2017-May-21 21:00N 40°39' W 074°04'2 4.3
2017-May-21 20:30N 40°39' W 074°07'0 0.0
2017-May-21 20:00N 40°39' W 074°07'0 0.0
2017-May-21 19:30N 40°39' W 074°07'0 0.0
2017-May-21 19:00N 40°39' W 074°07'0 0.0
2017-May-21 18:30N 40°39' W 074°07'0 0.0
2017-May-21 18:00N 40°39' W 074°07'2 3.6
2017-May-21 17:30N 40°39' W 074°04'1 2.4
2017-May-21 17:00N 40°39' W 074°03'2 4.4
2017-May-21 16:31N 40°37' W 074°03'4 7.6
2017-May-21 16:01N 40°34' W 074°02'4 7.4
2017-May-21 15:31N 40°31' W 073°59'4 8.2
2017-May-21 15:00N 40°29' W 073°54'4 8.5
2017-May-21 14:29N 40°30' W 073°48'24 8.5
2017-May-21 11:36N 40°34' W 073°16'1 8.6
2017-May-21 11:30N 40°34' W 073°15'154 7.8
2017-May-20 15:47N 42°07' W 070°32'16 8.2
2017-May-20 13:49N 42°19' W 070°45'3 8.6
2017-May-20 13:31N 42°21' W 070°48'4 8.2
2017-May-20 13:01N 42°23' W 070°53'4 8.5
2017-May-20 12:31N 42°20' W 070°57'4 8.2
2017-May-20 12:01N 42°22' W 071°03'2 3.5
2017-May-20 11:30N 42°23' W 071°03'0 0.0
2017-May-20 10:56N 42°23' W 071°03'0 0.0
2017-May-20 10:23N 42°23' W 071°03'0 0.2
2017-May-20 10:00N 42°23' W 071°03'0 0.0
2017-May-20 09:30N 42°23' W 071°03'0 0.0
2017-May-20 09:00N 42°23' W 071°03'0 0.0
2017-May-20 08:27N 42°23' W 071°03'0 0.0
2017-May-20 08:00N 42°23' W 071°03'0 0.0
2017-May-20 07:30N 42°23' W 071°03'0 0.0
2017-May-20 07:00N 42°23' W 071°03'0 0.0
2017-May-20 06:30N 42°23' W 071°03'0 0.0
2017-May-20 06:00N 42°23' W 071°03'0 0.0
2017-May-20 05:30N 42°23' W 071°03'0 0.0
2017-May-20 04:57N 42°23' W 071°03'0 0.0
2017-May-20 04:30N 42°23' W 071°03'0 0.0
2017-May-20 04:00N 42°23' W 071°03'0 0.0
2017-May-20 03:30N 42°23' W 071°03'0 0.0
2017-May-20 03:00N 42°23' W 071°03'0 0.0
2017-May-20 02:30N 42°23' W 071°03'  

Dump ship's entire track history